Elgin, Canada
Current Conditions -  °F | °C
As of 12:00 AM on Monday 26 Jan 2015 (Local Time) from CYBR Reporting Station
Clear Clear  
Wind Chill: 18°   Ceiling: Unl
Heat Index: 30°   Visibility: 15mi
Dew Point: 28°   Wind: 18mph
Humidity: 93%   Direction: 290°WNW
Pressure: 29.6"   Gusts: NA
Location:  49.43°N, 100.27°W
Report Text: CYBR 260600Z 29016KT 15SM SKC M01/M02 A2960 RMK SLP051
Loading
Personal Weather Stations






























Interactive Weather Map New forecast layout! Learn more

10-Day Weather Forecast

Advertisements
Track Severe Weather on mobile